aviador You're here:

LFKS Decoded Metar

SOLENZARA in CORSE ISL.
Report Time2017-08-18 04:30:00
UTC Time2017-08-18 04:43:16
Flight Rules vfr VFR
WindVRB at 02 kt
Visibility9999 m
Phenomena:N/A
Clouds:N/A
Expected CloudBase > 2,800 ft AGL from Temp-Dew spread
CeilingNone
Temp23°C (ISA +8)
Dew Point16°C (65% RH)
QNH1016 hPa
Density Alt1,161 ft
Elevation72 ft
Report Wrong Elevation
Raw Report
METAR LFKS 180430Z AUTO VRB02KT CAVOK 23/16 Q1016=

Extra information for LFKS:More info

Metar Taf Metar & Taf Last 4 Metars F.Rules Stats Wind Profile Meteogram Temp Stats Airport Information Weather charts Add Link Nearby VenuesMetar ALERT Operation Metar Decoded Social comments